• Join FlightAware (Why Join?)
  • Login
  • US Flag 
05:22PM EDT


 

Airport Tracker/Info


-or-


 

Live Flight TrackerFlight Track Log ✈ ASQ421T ✈ 01-Jul-2013 ✈ KIAH - KDAL

Flight Track Log - Related Links

Times and Time Zones

All times are in EDT time to prevent confusion due to time zone crossing. See the ASQ421T flight status page for this flight to view local times or setup timezone preferences in your user account.

Time Position Orientation Groundspeed Altitude Reporting Facility
EDT Latitude Longitude Course Direction KTS MPH feet Rate Location/Type
09:46PM 29.9572 -95.3417 261° West 167 192 800  Level Houston Center
09:47PM 29.9511 -95.3883 261° West 240 276 2,800 1,620 Climbing Houston Center
09:48PM 29.9856 -95.3856 North 236 272 4,100 2,520 Climbing Houston Center
09:49PM 30.0669 -95.4119 344° North 257 296 7,200 2,580 Climbing Houston Center
09:50PM 30.1328 -95.4447 337° Northwest 257 296 9,400 1,860 Climbing Houston Center
09:51PM 30.2044 -95.4819 336° Northwest 268 308 11,100 1,200 Climbing Houston Center
09:52PM 30.2875 -95.5239 336° Northwest 302 348 11,900 1,020 Climbing Houston Center
09:53PM 30.3758 -95.5697 336° Northwest 333 383 13,200 960 Climbing Houston Center
09:54PM 30.4667 -95.6153 337° Northwest 347 399 13,900 360 Climbing Houston Center
09:55PM 30.5628 -95.6633 337° Northwest 368 423 14,000  Climbing Houston Center
09:56PM 30.6575 -95.7158 335° Northwest 376 433 14,000  Level Houston Center
09:57PM 30.7564 -95.7700 335° Northwest 380 437 14,000  Level Houston Center
09:58PM 30.8522 -95.8206 336° Northwest 378 435 14,000  Level Houston Center
09:59PM 30.9481 -95.8722 335° Northwest 379 436 14,000  Level Houston Center
10:00PM 31.0447 -95.9242 335° Northwest 380 437 14,000  Level Houston Center
10:01PM 31.1608 -95.9756 339° North 375 432 14,000  Level Houston Center
10:02PM 31.2633 -95.9997 349° North 373 429 14,000  Level Houston Center
10:03PM 31.3686 -96.0244 349° North 380 437 14,000  Level Houston Center
10:04PM 31.4736 -96.0483 349° North 383 441 14,000  Level Houston Center
10:05PM 31.5758 -96.0803 345° North 379 436 14,000 60 Level Houston Center
10:06PM 31.6428 -96.1031 344° North 372 428 14,100 60 Climbing Fort Worth Center
10:07PM 31.7456 -96.1406 343° North 379 436 14,100  Level Fort Worth Center
10:08PM 31.8419 -96.1711 345° North 379 436 14,100  Level Fort Worth Center
10:09PM 31.9467 -96.2089 343° North 379 436 14,100  Level Fort Worth Center
10:10PM 32.0347 -96.2369 345° North 379 436 14,100 -420 Level Fort Worth Center
10:11PM 32.1392 -96.2700 345° North 379 436 13,300 -1,080 Descending Fort Worth Center
10:12PM 32.2419 -96.3056 344° North 361 415 12,000 -1,260 Descending Fort Worth Center
10:13PM 32.3131 -96.3294 344° North 316 364 10,800 -1,380 Descending Fort Worth Center
10:14PM 32.3947 -96.3556 345° North 275 316 9,300 -900 Descending Fort Worth Center
10:15PM 32.4514 -96.3942 330° Northwest 262 302 9,000 -1,140 Descending Fort Worth Center
10:16PM 32.5103 -96.4575 318° Northwest 257 296 7,100 -1,740 Descending Fort Worth Center
10:17PM 32.5567 -96.5114 316° Northwest 257 296 5,600 -1,080 Descending Fort Worth Center
10:18PM 32.6072 -96.5700 316° Northwest 238 274 5,000 -300 Descending Fort Worth Center
10:19PM 32.6514 -96.6214 316° Northwest 226 260 5,000 -480 Level Fort Worth Center
10:20PM 32.6975 -96.6703 318° Northwest 221 254 4,100 -840 Descending Fort Worth Center
10:20PM 32.7333 -96.7000 325° Northwest 215 247 3,500 -960 Descending Dallas / Fort Worth TRACON
10:21PM 32.7667 -96.7500 308° West 197 227 2,400 -960 Descending Dallas / Fort Worth TRACON
10:22PM 32.8000 -96.7833 320° Northwest 129 148 1,600 -720 Descending Dallas / Fort Worth TRACON
10:23PM 32.8333 -96.8167 320° Northwest 130 150 1,000 -600 Descending Dallas / Fort Worth TRACON